createdAt,value
2019-05-20T00:01:03.772Z,18.37
2019-05-20T00:03:32.181Z,18.37
2019-05-20T00:06:00.716Z,17.83
2019-05-20T00:08:29.155Z,17.70
2019-05-20T00:10:57.562Z,17.57
2019-05-20T00:13:25.998Z,17.67
2019-05-20T00:15:54.417Z,18.30
2019-05-20T00:18:23.093Z,17.02
2019-05-20T00:20:51.501Z,19.57
2019-05-20T00:23:19.942Z,19.10
2019-05-20T00:25:48.374Z,18.47
2019-05-20T00:28:16.821Z,19.48
2019-05-20T00:30:46.149Z,21.17
2019-05-20T00:33:14.550Z,20.93
2019-05-20T00:35:42.989Z,21.40
2019-05-20T00:38:11.399Z,22.73
2019-05-20T00:40:39.835Z,22.60
2019-05-20T00:43:08.237Z,23.97
2019-05-20T00:45:36.710Z,26.47
2019-05-20T00:48:05.907Z,27.13
2019-05-20T00:50:34.838Z,27.77
2019-05-20T00:53:03.273Z,28.23
2019-05-20T00:55:33.655Z,28.10
2019-05-20T00:58:02.107Z,30.57
2019-05-20T01:00:30.945Z,29.47
2019-05-20T01:02:59.386Z,28.77
2019-05-20T01:05:27.798Z,32.27
2019-05-20T01:07:56.303Z,30.60
2019-05-20T01:10:24.721Z,30.23
2019-05-20T01:12:53.147Z,31.27
2019-05-20T01:15:21.986Z,31.67
2019-05-20T01:17:50.428Z,32.20
2019-05-20T01:20:19.015Z,31.07
2019-05-20T01:22:47.414Z,31.87
2019-05-20T01:25:15.913Z,32.33
2019-05-20T01:27:44.315Z,32.20
2019-05-20T01:30:15.280Z,32.13
2019-05-20T01:32:43.693Z,30.90
2019-05-20T01:35:13.953Z,32.83
2019-05-20T01:37:42.355Z,29.87
2019-05-20T01:40:11.361Z,31.50
2019-05-20T01:42:39.838Z,31.37
2019-05-20T01:45:08.810Z,31.87
2019-05-20T01:47:37.214Z,34.10
2019-05-20T01:50:07.496Z,32.97
2019-05-20T01:52:36.563Z,35.52
2019-05-20T01:55:08.570Z,35.73
2019-05-20T01:57:36.982Z,34.17
2019-05-20T02:00:08.007Z,33.65
2019-05-20T02:02:36.452Z,35.43
2019-05-20T02:05:06.611Z,35.87
2019-05-20T02:07:35.085Z,35.20
2019-05-20T02:10:05.452Z,36.93
2019-05-20T02:12:33.889Z,38.20
2019-05-20T02:15:09.713Z,39.97
2019-05-20T02:17:38.146Z,41.43
2019-05-20T02:20:08.299Z,40.20
2019-05-20T02:22:36.809Z,40.47
2019-05-20T02:25:05.755Z,41.30
2019-05-20T02:27:34.196Z,40.83
2019-05-20T02:30:02.612Z,40.20
2019-05-20T02:32:31.059Z,41.23
2019-05-20T02:34:59.495Z,43.10
2019-05-20T02:37:27.899Z,47.80
2019-05-20T02:39:56.324Z,48.00
2019-05-20T02:42:24.730Z,49.93
2019-05-20T02:44:53.166Z,53.50
2019-05-20T02:47:21.566Z,54.60
2019-05-20T02:49:50.009Z,54.37
2019-05-20T02:52:18.417Z,55.73
2019-05-20T02:54:46.846Z,56.63
2019-05-20T02:57:15.258Z,56.48
2019-05-20T02:59:43.690Z,58.13
2019-05-20T03:02:12.098Z,58.33
2019-05-20T03:04:40.525Z,62.27
2019-05-20T03:07:08.934Z,65.50
2019-05-20T03:09:37.369Z,63.33
2019-05-20T03:12:05.873Z,60.60
2019-05-20T03:14:34.305Z,64.47
2019-05-20T03:17:02.721Z,68.47
2019-05-20T03:19:31.144Z,73.63
2019-05-20T03:21:59.546Z,70.55
2019-05-20T03:24:27.986Z,70.15
2019-05-20T03:26:56.393Z,68.57
2019-05-20T03:29:24.850Z,69.47
2019-05-20T03:31:53.260Z,68.03
2019-05-20T03:34:44.047Z,65.85
2019-05-20T03:36:51.830Z,64.47
2019-05-20T03:39:20.574Z,64.55
2019-05-20T03:41:48.975Z,65.40
2019-05-20T03:44:17.435Z,65.93
2019-05-20T03:46:45.871Z,67.43
2019-05-20T03:49:14.320Z,65.13
2019-05-20T03:51:42.724Z,66.50
2019-05-20T03:54:11.154Z,65.67
2019-05-20T03:56:39.640Z,66.27
2019-05-20T03:59:08.051Z,66.37
2019-05-20T04:01:36.484Z,69.00
2019-05-20T04:04:05.812Z,67.37
2019-05-20T04:06:34.254Z,68.40
2019-05-20T04:09:02.650Z,73.87
2019-05-20T04:11:31.089Z,71.93
2019-05-20T04:13:59.509Z,72.13
2019-05-20T04:16:28.007Z,70.83
2019-05-20T04:18:56.411Z,70.93
2019-05-20T04:21:24.858Z,69.00
2019-05-20T04:23:53.273Z,69.13
2019-05-20T04:26:21.673Z,65.77
2019-05-20T04:28:50.105Z,62.07
2019-05-20T04:31:18.590Z,61.70
2019-05-20T04:33:47.008Z,64.43
2019-05-20T04:36:15.407Z,64.47
2019-05-20T04:38:43.848Z,62.70
2019-05-20T04:41:12.254Z,64.03
2019-05-20T04:43:40.681Z,62.30
2019-05-20T04:46:09.082Z,63.80
2019-05-20T04:48:37.511Z,63.67
2019-05-20T04:51:05.991Z,63.13
2019-05-20T04:53:34.448Z,61.67
2019-05-20T04:56:02.860Z,57.23
2019-05-20T04:58:31.253Z,60.10
2019-05-20T05:00:59.945Z,58.27
2019-05-20T05:03:28.334Z,57.33
2019-05-20T05:05:56.909Z,57.33
2019-05-20T05:08:25.799Z,57.47
2019-05-20T05:10:54.474Z,55.73
2019-05-20T05:13:23.674Z,55.48
2019-05-20T05:15:52.246Z,56.13
2019-05-20T05:18:21.121Z,58.17
2019-05-20T05:20:49.691Z,60.67
2019-05-20T05:23:18.157Z,59.30
2019-05-20T05:25:46.602Z,56.20
2019-05-20T05:28:15.076Z,55.40
2019-05-20T05:30:44.941Z,53.83
2019-05-20T05:33:13.345Z,51.77
2019-05-20T05:35:52.727Z,50.10
2019-05-20T05:38:11.969Z,49.30
2019-05-20T05:40:40.412Z,48.77
2019-05-20T05:43:08.874Z,47.50
2019-05-20T05:45:37.462Z,47.23
2019-05-20T05:48:05.991Z,48.37
2019-05-20T05:50:34.418Z,47.90
2019-05-20T05:53:02.921Z,47.93
2019-05-20T05:55:31.343Z,48.60
2019-05-20T05:57:59.771Z,49.53
2019-05-20T06:00:28.545Z,49.17
2019-05-20T06:02:56.999Z,50.40
2019-05-20T06:05:25.409Z,48.20
2019-05-20T06:07:53.841Z,47.93
2019-05-20T06:10:22.567Z,46.87
2019-05-20T06:12:50.969Z,48.93
2019-05-20T06:15:19.937Z,46.13
2019-05-20T06:17:48.345Z,47.40
2019-05-20T06:20:17.715Z,47.20
2019-05-20T06:22:46.118Z,48.63
2019-05-20T06:25:15.048Z,48.00
2019-05-20T06:27:43.495Z,48.33
2019-05-20T06:30:12.776Z,47.43
2019-05-20T06:32:41.354Z,46.77
2019-05-20T06:35:10.296Z,49.13
2019-05-20T06:37:43.741Z,50.80
2019-05-20T06:40:12.520Z,50.97
2019-05-20T06:42:40.920Z,51.97
2019-05-20T06:45:09.858Z,51.88
2019-05-20T06:47:38.369Z,51.83
2019-05-20T06:50:07.714Z,50.37
2019-05-20T06:52:36.423Z,51.47
2019-05-20T06:55:07.982Z,50.43
2019-05-20T06:57:36.408Z,49.20
2019-05-20T07:00:10.533Z,49.97
2019-05-20T07:02:39.015Z,48.00
2019-05-20T07:05:08.069Z,48.23
2019-05-20T07:07:36.501Z,47.77
2019-05-20T07:10:09.304Z,46.10
2019-05-20T07:12:41.605Z,47.30
2019-05-20T07:15:09.008Z,46.33
2019-05-20T07:17:37.609Z,45.40
2019-05-20T07:20:07.941Z,46.77
2019-05-20T07:22:53.890Z,45.97
2019-05-20T07:25:07.367Z,44.47
2019-05-20T07:27:35.794Z,44.57
2019-05-20T07:30:06.971Z,43.70
2019-05-20T07:32:35.393Z,41.57
2019-05-20T07:35:05.613Z,40.23
2019-05-20T07:37:34.056Z,39.30
2019-05-20T07:40:02.471Z,37.50
2019-05-20T07:42:30.929Z,37.88
2019-05-20T07:44:59.338Z,36.80
2019-05-20T07:47:27.993Z,35.03
2019-05-20T07:49:56.709Z,36.10
2019-05-20T07:52:26.166Z,33.97
2019-05-20T07:54:55.892Z,35.33
2019-05-20T07:57:27.403Z,35.10
2019-05-20T07:59:56.568Z,36.97
2019-05-20T08:02:25.732Z,39.78
2019-05-20T08:04:54.222Z,39.73
2019-05-20T08:07:29.680Z,39.03
2019-05-20T08:09:52.913Z,40.70
2019-05-20T08:12:21.347Z,43.63
2019-05-20T08:14:49.749Z,44.60
2019-05-20T08:17:18.164Z,42.73
2019-05-20T08:19:46.593Z,42.73
2019-05-20T08:22:14.985Z,43.03
2019-05-20T08:24:43.534Z,41.30
2019-05-20T08:27:11.970Z,42.10
2019-05-20T08:29:40.416Z,40.60
2019-05-20T08:32:08.834Z,42.13
2019-05-20T08:34:37.883Z,41.97
2019-05-20T08:37:07.274Z,43.97
2019-05-20T08:39:35.672Z,43.93
2019-05-20T08:42:04.816Z,43.43
2019-05-20T08:44:33.245Z,44.90
2019-05-20T08:47:01.909Z,46.77
2019-05-20T08:49:30.528Z,45.67
2019-05-20T08:51:59.023Z,46.17
2019-05-20T08:54:27.462Z,47.20
2019-05-20T08:56:55.874Z,45.37
2019-05-20T08:59:24.301Z,44.93
2019-05-20T09:01:52.759Z,43.67
2019-05-20T09:04:21.192Z,44.20
2019-05-20T09:06:49.602Z,45.47
2019-05-20T09:09:18.032Z,44.63
2019-05-20T09:11:47.796Z,44.80
2019-05-20T09:14:16.713Z,45.07
2019-05-20T09:16:45.115Z,45.60
2019-05-20T09:19:13.519Z,43.13
2019-05-20T09:21:41.949Z,44.43
2019-05-20T09:24:10.382Z,40.37
2019-05-20T09:26:38.807Z,40.00
2019-05-20T09:29:11.037Z,39.07
2019-05-20T09:31:37.915Z,41.03
2019-05-20T09:34:06.594Z,42.40
2019-05-20T09:36:35.217Z,41.65
2019-05-20T09:39:04.963Z,41.60
2019-05-20T09:41:33.394Z,42.47
2019-05-20T09:44:01.811Z,46.40
2019-05-20T09:46:30.343Z,45.73
2019-05-20T09:48:58.806Z,44.20
2019-05-20T09:51:27.270Z,41.90
2019-05-20T09:53:55.671Z,41.77
2019-05-20T09:56:24.076Z,41.10
2019-05-20T09:58:52.528Z,41.20
2019-05-20T10:01:20.947Z,40.60
2019-05-20T10:03:49.366Z,39.90
2019-05-20T10:06:17.820Z,41.23
2019-05-20T10:08:46.252Z,38.43
2019-05-20T10:11:14.690Z,38.67
2019-05-20T10:13:43.181Z,37.87
2019-05-20T10:16:11.578Z,38.23
2019-05-20T10:18:40.012Z,37.63
2019-05-20T10:21:08.417Z,38.80
2019-05-20T10:23:36.878Z,38.20
2019-05-20T10:26:05.941Z,36.67
2019-05-20T10:28:34.370Z,36.40
2019-05-20T10:31:02.793Z,36.60
2019-05-20T10:33:31.171Z,37.87
2019-05-20T10:35:59.597Z,39.73
2019-05-20T10:38:28.131Z,37.13
2019-05-20T10:40:56.543Z,35.90
2019-05-20T10:43:25.240Z,36.13
2019-05-20T10:45:53.649Z,35.37
2019-05-20T10:48:22.054Z,35.10
2019-05-20T10:50:50.489Z,33.83
2019-05-20T10:53:18.901Z,35.97
2019-05-20T10:55:47.329Z,35.83
2019-05-20T10:58:15.810Z,36.53
2019-05-20T11:01:01.078Z,34.60
2019-05-20T11:03:14.365Z,35.80
2019-05-20T11:05:43.245Z,36.33
2019-05-20T11:08:11.653Z,36.03
2019-05-20T11:10:40.093Z,37.17
2019-05-20T11:13:08.502Z,37.43
2019-05-20T11:15:36.941Z,37.43
2019-05-20T11:18:05.961Z,36.38
2019-05-20T11:20:34.401Z,37.67
2019-05-20T11:23:02.801Z,39.67
2019-05-20T11:25:31.249Z,38.70
2019-05-20T11:27:59.649Z,40.37
2019-05-20T11:30:28.153Z,39.10
2019-05-20T11:32:56.589Z,39.33
2019-05-20T11:35:25.012Z,39.23
2019-05-20T11:37:53.429Z,39.63
2019-05-20T11:40:22.000Z,36.87
2019-05-20T11:42:50.484Z,37.27
2019-05-20T11:45:19.247Z,36.00
2019-05-20T11:47:47.685Z,38.23
2019-05-20T11:50:16.792Z,37.57
2019-05-20T11:52:45.431Z,38.13
2019-05-20T11:55:14.113Z,38.43
2019-05-20T11:57:42.518Z,39.67
2019-05-20T12:00:12.607Z,40.67
2019-05-20T12:02:41.007Z,38.10
2019-05-20T12:05:09.774Z,39.67
2019-05-20T12:07:38.249Z,38.60
2019-05-20T12:10:08.524Z,39.07
2019-05-20T12:12:37.029Z,40.50
2019-05-20T12:15:08.504Z,40.57
2019-05-20T12:17:37.174Z,40.07
2019-05-20T12:20:10.374Z,40.63
2019-05-20T12:22:38.300Z,40.10
2019-05-20T12:25:07.355Z,39.33
2019-05-20T12:27:35.796Z,38.83
2019-05-20T12:30:05.129Z,39.37
2019-05-20T12:32:33.617Z,41.07
2019-05-20T12:35:02.106Z,44.90
2019-05-20T12:37:30.524Z,42.87
2019-05-20T12:40:06.903Z,42.83
2019-05-20T12:42:29.082Z,42.47
2019-05-20T12:44:57.489Z,42.70
2019-05-20T12:47:25.917Z,43.60
2019-05-20T12:49:54.341Z,44.83
2019-05-20T12:52:22.789Z,44.08
2019-05-20T12:55:05.992Z,46.23
2019-05-20T12:57:21.432Z,44.47
2019-05-20T12:59:49.834Z,45.37
2019-05-20T13:02:18.255Z,45.33
2019-05-20T13:04:46.698Z,45.13
2019-05-20T13:07:15.153Z,42.73
2019-05-20T13:09:43.650Z,40.37
2019-05-20T13:12:12.093Z,38.10
2019-05-20T13:14:40.527Z,39.27
2019-05-20T13:17:08.930Z,40.43
2019-05-20T13:19:37.395Z,42.73
2019-05-20T13:22:06.001Z,43.67
2019-05-20T13:24:34.421Z,43.90
2019-05-20T13:27:02.849Z,41.07
2019-05-20T13:29:31.289Z,41.57
2019-05-20T13:31:59.697Z,40.30
2019-05-20T13:34:28.135Z,40.30
2019-05-20T13:36:56.541Z,44.43
2019-05-20T13:39:24.985Z,45.23
2019-05-20T13:41:53.422Z,44.57
2019-05-20T13:44:21.863Z,47.00
2019-05-20T13:46:50.266Z,44.60
2019-05-20T13:49:18.693Z,44.60
2019-05-20T13:51:47.105Z,44.20
2019-05-20T13:54:15.526Z,44.77
2019-05-20T13:56:43.934Z,44.97
2019-05-20T13:59:12.384Z,42.77
2019-05-20T14:01:40.805Z,41.90
2019-05-20T14:04:09.264Z,41.30
2019-05-20T14:06:37.671Z,43.63
2019-05-20T14:09:07.555Z,42.83
2019-05-20T14:11:36.373Z,44.27
2019-05-20T14:14:04.764Z,43.43
2019-05-20T14:16:33.206Z,43.17
2019-05-20T14:19:01.616Z,43.37
2019-05-20T14:21:30.060Z,41.80
2019-05-20T14:23:58.464Z,41.07
2019-05-20T14:26:26.918Z,40.23
2019-05-20T14:28:55.365Z,41.07
2019-05-20T14:31:23.821Z,40.83
2019-05-20T14:33:52.272Z,42.83
2019-05-20T14:36:38.615Z,42.05
2019-05-20T14:38:50.863Z,42.47
2019-05-20T14:41:21.885Z,41.70
2019-05-20T14:43:49.404Z,43.73
2019-05-20T14:46:18.065Z,43.50
2019-05-20T14:48:46.469Z,44.80
2019-05-20T14:51:14.874Z,47.40
2019-05-20T14:53:43.313Z,47.47
2019-05-20T14:56:11.734Z,45.30
2019-05-20T14:58:40.135Z,47.43
2019-05-20T15:01:08.826Z,45.00
2019-05-20T15:03:37.236Z,45.60
2019-05-20T15:06:05.940Z,44.30
2019-05-20T15:08:35.164Z,44.93
2019-05-20T15:11:03.855Z,44.77
2019-05-20T15:13:32.269Z,44.10
2019-05-20T15:16:00.920Z,43.17
2019-05-20T15:18:29.335Z,44.00
2019-05-20T15:20:57.756Z,44.00
2019-05-20T15:23:26.884Z,42.97
2019-05-20T15:25:55.465Z,42.77
2019-05-20T15:28:23.890Z,41.83
2019-05-20T15:30:52.310Z,44.67
2019-05-20T15:33:20.714Z,44.53
2019-05-20T15:35:49.173Z,45.10
2019-05-20T15:38:17.579Z,44.83
2019-05-20T15:40:45.994Z,45.07
2019-05-20T15:43:14.452Z,45.33
2019-05-20T15:45:42.849Z,45.17
2019-05-20T15:48:11.287Z,45.08
2019-05-20T15:50:39.685Z,45.07
2019-05-20T15:53:11.306Z,43.97
2019-05-20T15:55:38.318Z,42.40
2019-05-20T15:58:06.732Z,42.87
2019-05-20T16:00:35.170Z,42.20
2019-05-20T16:03:04.565Z,42.33
2019-05-20T16:05:33.287Z,43.53
2019-05-20T16:08:01.992Z,42.13
2019-05-20T16:10:31.108Z,43.10
2019-05-20T16:12:59.529Z,42.03
2019-05-20T16:15:27.926Z,44.67
2019-05-20T16:17:56.337Z,46.30
2019-05-20T16:20:24.775Z,45.20
2019-05-20T16:22:53.188Z,46.07
2019-05-20T16:25:21.582Z,44.60
2019-05-20T16:27:50.011Z,44.13
2019-05-20T16:30:18.585Z,42.83
2019-05-20T16:32:47.022Z,41.33
2019-05-20T16:35:15.982Z,42.50
2019-05-20T16:37:44.479Z,42.33
2019-05-20T16:40:13.265Z,41.40
2019-05-20T16:42:41.719Z,41.80
2019-05-20T16:45:11.974Z,42.57
2019-05-20T16:47:40.850Z,41.67
2019-05-20T16:50:11.204Z,44.53
2019-05-20T16:52:39.583Z,41.83
2019-05-20T16:55:09.169Z,42.03
2019-05-20T16:57:37.617Z,42.33
2019-05-20T17:00:27.425Z,42.33
2019-05-20T17:02:37.687Z,42.70
2019-05-20T17:05:06.441Z,42.37
2019-05-20T17:07:34.837Z,41.43
2019-05-20T17:10:04.528Z,42.10
2019-05-20T17:12:32.956Z,41.75
2019-05-20T17:15:01.382Z,40.37
2019-05-20T17:17:29.892Z,40.07
2019-05-20T17:19:58.379Z,38.53
2019-05-20T17:22:26.785Z,40.33
2019-05-20T17:24:55.528Z,40.37
2019-05-20T17:27:23.937Z,39.13
2019-05-20T17:29:52.346Z,38.83
2019-05-20T17:32:21.019Z,38.40
2019-05-20T17:34:49.433Z,37.77
2019-05-20T17:37:17.852Z,36.20
2019-05-20T17:39:46.287Z,35.67
2019-05-20T17:42:14.755Z,34.00
2019-05-20T17:44:43.165Z,33.10
2019-05-20T17:47:11.675Z,31.67
2019-05-20T17:49:40.136Z,32.37
2019-05-20T17:52:08.546Z,31.83
2019-05-20T17:54:36.979Z,31.97
2019-05-20T17:57:05.407Z,32.20
2019-05-20T17:59:33.805Z,31.07
2019-05-20T18:02:02.401Z,30.83
2019-05-20T18:04:30.957Z,32.20
2019-05-20T18:06:59.533Z,32.17
2019-05-20T18:09:29.577Z,31.73
2019-05-20T18:11:58.201Z,31.97
2019-05-20T18:14:26.607Z,31.83
2019-05-20T18:16:55.043Z,32.33
2019-05-20T18:19:23.482Z,34.13
2019-05-20T18:21:51.892Z,32.13
2019-05-20T18:24:20.323Z,33.63
2019-05-20T18:26:48.754Z,33.93
2019-05-20T18:29:17.237Z,33.50
2019-05-20T18:31:45.665Z,32.27
2019-05-20T18:34:14.079Z,33.10
2019-05-20T18:36:42.515Z,31.83
2019-05-20T18:39:11.086Z,32.17
2019-05-20T18:41:39.494Z,34.10
2019-05-20T18:44:07.928Z,32.80
2019-05-20T18:46:36.333Z,32.90
2019-05-20T18:49:04.969Z,32.70
2019-05-20T18:51:33.430Z,32.87
2019-05-20T18:54:01.830Z,31.70
2019-05-20T18:56:30.270Z,32.33
2019-05-20T18:58:58.682Z,32.37
2019-05-20T19:01:27.087Z,31.50
2019-05-20T19:03:55.596Z,31.00
2019-05-20T19:06:24.073Z,30.77
2019-05-20T19:08:52.485Z,31.70
2019-05-20T19:11:20.885Z,30.48
2019-05-20T19:13:49.315Z,31.23
2019-05-20T19:16:17.722Z,31.70
2019-05-20T19:18:46.193Z,32.07
2019-05-20T19:21:14.808Z,31.33
2019-05-20T19:23:43.239Z,33.13
2019-05-20T19:26:23.833Z,34.33
2019-05-20T19:28:41.823Z,35.43
2019-05-20T19:31:10.267Z,36.10
2019-05-20T19:33:38.661Z,37.77
2019-05-20T19:36:07.245Z,37.20
2019-05-20T19:38:35.655Z,38.57
2019-05-20T19:41:04.589Z,37.67
2019-05-20T19:43:33.031Z,38.10
2019-05-20T19:46:01.630Z,38.20
2019-05-20T19:48:30.038Z,38.17
2019-05-20T19:50:58.996Z,38.20
2019-05-20T19:53:27.386Z,37.47
2019-05-20T19:55:56.341Z,37.43
2019-05-20T19:58:24.805Z,39.33
2019-05-20T20:00:56.559Z,38.30
2019-05-20T20:03:23.389Z,39.20
2019-05-20T20:05:51.834Z,37.67
2019-05-20T20:08:21.262Z,39.80
2019-05-20T20:10:49.666Z,39.60
2019-05-20T20:13:18.104Z,39.07
2019-05-20T20:15:46.515Z,41.43
2019-05-20T20:18:14.945Z,42.55
2019-05-20T20:20:43.470Z,41.30
2019-05-20T20:23:11.947Z,41.10
2019-05-20T20:25:40.356Z,42.23
2019-05-20T20:28:08.837Z,41.83
2019-05-20T20:30:37.478Z,42.87
2019-05-20T20:33:05.895Z,42.37
2019-05-20T20:35:38.107Z,43.10
2019-05-20T20:38:04.684Z,44.03
2019-05-20T20:40:33.153Z,42.50
2019-05-20T20:43:01.642Z,44.13
2019-05-20T20:45:30.069Z,43.47
2019-05-20T20:47:58.510Z,43.17
2019-05-20T20:50:26.909Z,44.37
2019-05-20T20:52:55.372Z,43.20
2019-05-20T20:55:23.770Z,42.57
2019-05-20T20:57:52.219Z,43.57
2019-05-20T21:00:20.761Z,42.70
2019-05-20T21:02:53.266Z,43.47
2019-05-20T21:05:19.319Z,42.67
2019-05-20T21:07:51.513Z,44.83
2019-05-20T21:10:18.411Z,42.90
2019-05-20T21:12:46.813Z,43.75
2019-05-20T21:15:15.373Z,42.03
2019-05-20T21:17:43.797Z,42.33
2019-05-20T21:20:12.600Z,42.90
2019-05-20T21:22:41.006Z,41.87
2019-05-20T21:25:09.513Z,42.27
2019-05-20T21:27:37.967Z,43.80
2019-05-20T21:30:07.672Z,42.47
2019-05-20T21:32:36.228Z,42.57
2019-05-20T21:35:05.686Z,42.40
2019-05-20T21:37:34.136Z,41.25
2019-05-20T21:40:02.579Z,40.73
2019-05-20T21:42:31.054Z,42.13
2019-05-20T21:44:59.445Z,41.00
2019-05-20T21:47:27.891Z,38.70
2019-05-20T21:49:56.295Z,40.03
2019-05-20T21:52:24.746Z,38.33
2019-05-20T21:54:53.146Z,37.83
2019-05-20T21:57:21.566Z,36.37
2019-05-20T21:59:49.997Z,36.97
2019-05-20T22:02:18.570Z,37.00
2019-05-20T22:04:47.032Z,37.33
2019-05-20T22:07:15.429Z,36.10
2019-05-20T22:09:43.913Z,37.23
2019-05-20T22:12:12.335Z,35.85
2019-05-20T22:14:40.783Z,37.40
2019-05-20T22:17:09.232Z,35.40
2019-05-20T22:19:37.641Z,36.63
2019-05-20T22:22:16.866Z,37.67
2019-05-20T22:24:45.285Z,37.30
2019-05-20T22:27:13.731Z,37.33
2019-05-20T22:29:42.138Z,38.93
2019-05-20T22:32:10.578Z,39.00
2019-05-20T22:34:52.709Z,38.77
2019-05-20T22:37:09.911Z,40.63
2019-05-20T22:39:38.328Z,38.53
2019-05-20T22:42:06.753Z,40.23
2019-05-20T22:44:35.159Z,39.83
2019-05-20T22:47:03.630Z,40.27
2019-05-20T22:49:32.077Z,40.30
2019-05-20T22:52:00.579Z,40.67
2019-05-20T22:54:28.977Z,41.33
2019-05-20T22:56:57.406Z,41.70
2019-05-20T22:59:25.890Z,38.67
2019-05-20T23:01:54.302Z,39.70
2019-05-20T23:04:22.751Z,38.87
2019-05-20T23:06:51.159Z,37.57
2019-05-20T23:09:19.588Z,37.73
2019-05-20T23:11:47.993Z,35.07
2019-05-20T23:14:16.458Z,33.83
2019-05-20T23:16:44.869Z,34.20
2019-05-20T23:19:13.317Z,35.20
2019-05-20T23:21:41.749Z,33.50
2019-05-20T23:24:10.173Z,35.40
2019-05-20T23:26:38.586Z,34.37
2019-05-20T23:29:07.075Z,34.35
2019-05-20T23:31:35.482Z,34.37
2019-05-20T23:34:12.391Z,35.00
2019-05-20T23:36:34.036Z,35.13
2019-05-20T23:39:04.075Z,37.50
2019-05-20T23:41:32.511Z,37.53
2019-05-20T23:44:00.913Z,39.63
2019-05-20T23:46:29.342Z,41.07
2019-05-20T23:48:58.649Z,42.23
2019-05-20T23:51:27.057Z,44.33
2019-05-20T23:53:55.483Z,47.70
2019-05-20T23:56:23.885Z,44.77
2019-05-20T23:58:52.319Z,47.53
